sensor_id;sensor_type;location;lat;lon;timestamp;pressure;altitude;pressure_sealevel;temperature;humidity
9419;BME280;4748;50.802;7.132;2023-04-30T00:01:33;101553.81;;;10.60;100.00
9419;BME280;4748;50.802;7.132;2023-04-30T00:03:59;101550.94;;;10.62;100.00
9419;BME280;4748;50.802;7.132;2023-04-30T00:06:24;101557.31;;;10.61;100.00
9419;BME280;4748;50.802;7.132;2023-04-30T00:08:50;101550.47;;;10.52;100.00
9419;BME280;4748;50.802;7.132;2023-04-30T00:11:15;101550.81;;;10.42;100.00
9419;BME280;4748;50.802;7.132;2023-04-30T00:13:41;101554.53;;;10.41;100.00
9419;BME280;4748;50.802;7.132;2023-04-30T00:16:07;101555.38;;;10.42;100.00
9419;BME280;4748;50.802;7.132;2023-04-30T00:18:32;101557.41;;;10.40;100.00
9419;BME280;4748;50.802;7.132;2023-04-30T00:20:57;101548.06;;;10.29;100.00
9419;BME280;4748;50.802;7.132;2023-04-30T00:23:23;101554.66;;;10.27;100.00
9419;BME280;4748;50.802;7.132;2023-04-30T00:25:48;101555.66;;;10.26;100.00
9419;BME280;4748;50.802;7.132;2023-04-30T00:28:13;101557.91;;;10.22;100.00
9419;BME280;4748;50.802;7.132;2023-04-30T00:30:39;101556.41;;;10.14;100.00
9419;BME280;4748;50.802;7.132;2023-04-30T00:33:04;101565.78;;;10.03;100.00
9419;BME280;4748;50.802;7.132;2023-04-30T00:35:29;101567.28;;;10.12;100.00
9419;BME280;4748;50.802;7.132;2023-04-30T00:37:55;101561.75;;;10.14;100.00
9419;BME280;4748;50.802;7.132;2023-04-30T00:40:20;101568.06;;;10.06;100.00
9419;BME280;4748;50.802;7.132;2023-04-30T00:42:46;101565.63;;;10.11;100.00
9419;BME280;4748;50.802;7.132;2023-04-30T00:45:13;101571.97;;;10.04;100.00
9419;BME280;4748;50.802;7.132;2023-04-30T00:47:38;101575.22;;;9.99;100.00
9419;BME280;4748;50.802;7.132;2023-04-30T00:50:04;101562.59;;;9.93;100.00
9419;BME280;4748;50.802;7.132;2023-04-30T00:52:29;101576.09;;;9.85;100.00
9419;BME280;4748;50.802;7.132;2023-04-30T00:54:55;101578.34;;;9.82;100.00
9419;BME280;4748;50.802;7.132;2023-04-30T00:57:21;101574.19;;;9.79;100.00
9419;BME280;4748;50.802;7.132;2023-04-30T00:59:47;101581.78;;;9.76;100.00
9419;BME280;4748;50.802;7.132;2023-04-30T01:02:13;101573.09;;;9.74;100.00
9419;BME280;4748;50.802;7.132;2023-04-30T01:04:39;101573.69;;;9.69;100.00
9419;BME280;4748;50.802;7.132;2023-04-30T01:07:04;101576.47;;;9.62;100.00
9419;BME280;4748;50.802;7.132;2023-04-30T01:09:30;101577.13;;;9.64;100.00
9419;BME280;4748;50.802;7.132;2023-04-30T01:14:44;101577.75;;;9.45;100.00
9419;BME280;4748;50.802;7.132;2023-04-30T01:17:22;101588.81;;;9.42;100.00
9419;BME280;4748;50.802;7.132;2023-04-30T01:19:48;101577.88;;;9.37;100.00
9419;BME280;4748;50.802;7.132;2023-04-30T01:22:34;101570.09;;;9.42;100.00
9419;BME280;4748;50.802;7.132;2023-04-30T01:25:22;101576.59;;;9.33;100.00
9419;BME280;4748;50.802;7.132;2023-04-30T01:28:08;101576.72;;;9.25;100.00
9419;BME280;4748;50.802;7.132;2023-04-30T01:30:35;101572.38;;;9.24;100.00
9419;BME280;4748;50.802;7.132;2023-04-30T01:33:01;101568.94;;;9.30;100.00
9419;BME280;4748;50.802;7.132;2023-04-30T01:35:53;101566.84;;;9.25;100.00
9419;BME280;4748;50.802;7.132;2023-04-30T01:39:01;101569.06;;;9.22;100.00
9419;BME280;4748;50.802;7.132;2023-04-30T01:41:51;101569.81;;;9.16;100.00
9419;BME280;4748;50.802;7.132;2023-04-30T01:44:40;101573.25;;;9.10;100.00
9419;BME280;4748;50.802;7.132;2023-04-30T01:47:13;101565.16;;;9.04;100.00
9419;BME280;4748;50.802;7.132;2023-04-30T01:52:49;101566.56;;;9.00;100.00
9419;BME280;4748;50.802;7.132;2023-04-30T01:55:26;101568.59;;;8.83;100.00
9419;BME280;4748;50.802;7.132;2023-04-30T01:57:59;101569.78;;;8.95;100.00
9419;BME280;4748;50.802;7.132;2023-04-30T02:00:27;101565.47;;;8.94;100.00
9419;BME280;4748;50.802;7.132;2023-04-30T02:02:52;101571.63;;;8.95;100.00
9419;BME280;4748;50.802;7.132;2023-04-30T02:05:18;101569.97;;;8.94;100.00
9419;BME280;4748;50.802;7.132;2023-04-30T02:07:45;101568.13;;;8.94;100.00
9419;BME280;4748;50.802;7.132;2023-04-30T02:10:12;101577.81;;;8.95;100.00
9419;BME280;4748;50.802;7.132;2023-04-30T02:12:38;101572.47;;;8.95;100.00
9419;BME280;4748;50.802;7.132;2023-04-30T02:15:04;101574.28;;;8.95;100.00
9419;BME280;4748;50.802;7.132;2023-04-30T02:17:30;101576.94;;;8.95;100.00
9419;BME280;4748;50.802;7.132;2023-04-30T02:19:56;101576.94;;;8.95;100.00
9419;BME280;4748;50.802;7.132;2023-04-30T02:22:22;101582.28;;;8.95;100.00
9419;BME280;4748;50.802;7.132;2023-04-30T02:24:47;101579.19;;;8.91;100.00
9419;BME280;4748;50.802;7.132;2023-04-30T02:27:12;101586.34;;;8.91;100.00
9419;BME280;4748;50.802;7.132;2023-04-30T02:29:38;101580.75;;;8.86;100.00
9419;BME280;4748;50.802;7.132;2023-04-30T02:32:03;101587.66;;;8.80;100.00
9419;BME280;4748;50.802;7.132;2023-04-30T02:34:29;101588.66;;;8.79;100.00
9419;BME280;4748;50.802;7.132;2023-04-30T02:36:54;101588.84;;;8.78;100.00
9419;BME280;4748;50.802;7.132;2023-04-30T02:39:20;101588.97;;;8.70;100.00
9419;BME280;4748;50.802;7.132;2023-04-30T02:41:45;101590.03;;;8.61;100.00
9419;BME280;4748;50.802;7.132;2023-04-30T02:44:10;101591.63;;;8.56;100.00
9419;BME280;4748;50.802;7.132;2023-04-30T02:46:36;101594.94;;;8.58;100.00
9419;BME280;4748;50.802;7.132;2023-04-30T02:49:01;101594.19;;;8.49;100.00
9419;BME280;4748;50.802;7.132;2023-04-30T02:51:26;101594.56;;;8.32;100.00
9419;BME280;4748;50.802;7.132;2023-04-30T02:53:52;101596.13;;;8.41;100.00
9419;BME280;4748;50.802;7.132;2023-04-30T02:56:18;101598.97;;;8.39;100.00
9419;BME280;4748;50.802;7.132;2023-04-30T02:58:43;101596.84;;;8.35;100.00
9419;BME280;4748;50.802;7.132;2023-04-30T03:01:08;101590.53;;;8.36;100.00
9419;BME280;4748;50.802;7.132;2023-04-30T03:03:34;101591.22;;;8.30;100.00
9419;BME280;4748;50.802;7.132;2023-04-30T03:05:59;101596.75;;;8.28;100.00
9419;BME280;4748;50.802;7.132;2023-04-30T03:08:25;101594.97;;;8.21;100.00
9419;BME280;4748;50.802;7.132;2023-04-30T03:10:50;101591.88;;;8.17;100.00
9419;BME280;4748;50.802;7.132;2023-04-30T03:13:16;101589.97;;;8.04;100.00
9419;BME280;4748;50.802;7.132;2023-04-30T03:15:42;101593.25;;;8.06;100.00
9419;BME280;4748;50.802;7.132;2023-04-30T03:18:07;101598.13;;;8.02;100.00
9419;BME280;4748;50.802;7.132;2023-04-30T03:20:32;101594.66;;;8.02;100.00
9419;BME280;4748;50.802;7.132;2023-04-30T03:22:58;101596.84;;;7.98;100.00
9419;BME280;4748;50.802;7.132;2023-04-30T03:25:23;101594.22;;;7.90;100.00
9419;BME280;4748;50.802;7.132;2023-04-30T03:27:49;101595.44;;;7.88;100.00
9419;BME280;4748;50.802;7.132;2023-04-30T03:30:14;101591.28;;;7.85;100.00
9419;BME280;4748;50.802;7.132;2023-04-30T03:32:39;101593.78;;;7.87;100.00
9419;BME280;4748;50.802;7.132;2023-04-30T03:35:05;101594.06;;;7.92;100.00
9419;BME280;4748;50.802;7.132;2023-04-30T03:37:30;101589.81;;;7.83;100.00
9419;BME280;4748;50.802;7.132;2023-04-30T03:39:56;101595.22;;;7.75;100.00
9419;BME280;4748;50.802;7.132;2023-04-30T03:42:21;101589.97;;;7.81;100.00
9419;BME280;4748;50.802;7.132;2023-04-30T03:44:46;101597.53;;;7.78;100.00
9419;BME280;4748;50.802;7.132;2023-04-30T03:47:12;101596.38;;;7.72;100.00
9419;BME280;4748;50.802;7.132;2023-04-30T03:49:37;101591.78;;;7.66;100.00
9419;BME280;4748;50.802;7.132;2023-04-30T03:52:03;101583.19;;;7.57;100.00
9419;BME280;4748;50.802;7.132;2023-04-30T03:54:29;101587.84;;;7.55;100.00
9419;BME280;4748;50.802;7.132;2023-04-30T03:56:55;101588.22;;;7.52;100.00
9419;BME280;4748;50.802;7.132;2023-04-30T03:59:20;101591.91;;;7.51;100.00
9419;BME280;4748;50.802;7.132;2023-04-30T04:01:46;101601.53;;;7.52;100.00
9419;BME280;4748;50.802;7.132;2023-04-30T04:04:12;101590.53;;;7.55;100.00
9419;BME280;4748;50.802;7.132;2023-04-30T04:06:37;101589.16;;;7.59;100.00
9419;BME280;4748;50.802;7.132;2023-04-30T04:09:03;101597.34;;;7.57;100.00
9419;BME280;4748;50.802;7.132;2023-04-30T04:11:28;101599.63;;;7.60;100.00
9419;BME280;4748;50.802;7.132;2023-04-30T04:13:54;101593.13;;;7.62;100.00
9419;BME280;4748;50.802;7.132;2023-04-30T04:16:19;101592.41;;;7.46;100.00
9419;BME280;4748;50.802;7.132;2023-04-30T04:18:45;101592.91;;;7.50;100.00
9419;BME280;4748;50.802;7.132;2023-04-30T04:21:10;101588.56;;;7.49;100.00
9419;BME280;4748;50.802;7.132;2023-04-30T04:23:36;101592.94;;;7.42;100.00
9419;BME280;4748;50.802;7.132;2023-04-30T04:26:01;101594.22;;;7.54;100.00
9419;BME280;4748;50.802;7.132;2023-04-30T04:28:27;101602.38;;;7.52;100.00
9419;BME280;4748;50.802;7.132;2023-04-30T04:30:52;101602.47;;;7.59;100.00
9419;BME280;4748;50.802;7.132;2023-04-30T04:33:17;101606.47;;;7.62;100.00
9419;BME280;4748;50.802;7.132;2023-04-30T04:35:43;101614.56;;;7.69;100.00
9419;BME280;4748;50.802;7.132;2023-04-30T04:38:08;101608.47;;;7.61;100.00
9419;BME280;4748;50.802;7.132;2023-04-30T04:40:33;101604.78;;;7.61;100.00
9419;BME280;4748;50.802;7.132;2023-04-30T04:43:01;101605.63;;;7.62;100.00
9419;BME280;4748;50.802;7.132;2023-04-30T04:45:27;101609.03;;;7.70;100.00
9419;BME280;4748;50.802;7.132;2023-04-30T04:47:52;101612.38;;;7.72;100.00
9419;BME280;4748;50.802;7.132;2023-04-30T04:50:17;101619.56;;;7.72;100.00
9419;BME280;4748;50.802;7.132;2023-04-30T04:52:43;101608.72;;;7.73;100.00
9419;BME280;4748;50.802;7.132;2023-04-30T04:55:08;101613.19;;;7.73;100.00
9419;BME280;4748;50.802;7.132;2023-04-30T04:57:33;101613.03;;;7.74;100.00
9419;BME280;4748;50.802;7.132;2023-04-30T04:59:59;101611.13;;;7.83;100.00
9419;BME280;4748;50.802;7.132;2023-04-30T05:02:24;101611.53;;;7.94;100.00
9419;BME280;4748;50.802;7.132;2023-04-30T05:04:50;101610.88;;;7.92;100.00
9419;BME280;4748;50.802;7.132;2023-04-30T05:07:16;101609.22;;;8.13;100.00
9419;BME280;4748;50.802;7.132;2023-04-30T05:09:43;101615.78;;;8.25;100.00
9419;BME280;4748;50.802;7.132;2023-04-30T05:12:08;101614.91;;;8.47;100.00
9419;BME280;4748;50.802;7.132;2023-04-30T05:14:33;101614.63;;;8.71;100.00
9419;BME280;4748;50.802;7.132;2023-04-30T05:16:59;101617.84;;;8.95;100.00
9419;BME280;4748;50.802;7.132;2023-04-30T05:19:25;101626.78;;;9.37;100.00
9419;BME280;4748;50.802;7.132;2023-04-30T05:21:50;101639.38;;;9.78;100.00
9419;BME280;4748;50.802;7.132;2023-04-30T05:24:15;101650.06;;;10.41;100.00
9419;BME280;4748;50.802;7.132;2023-04-30T05:26:41;101662.19;;;10.64;100.00
9419;BME280;4748;50.802;7.132;2023-04-30T05:29:07;101677.63;;;10.89;100.00
9419;BME280;4748;50.802;7.132;2023-04-30T05:31:32;101674.28;;;10.81;100.00
9419;BME280;4748;50.802;7.132;2023-04-30T05:33:57;101678.03;;;11.33;100.00
9419;BME280;4748;50.802;7.132;2023-04-30T05:36:22;101687.19;;;11.91;100.00
9419;BME280;4748;50.802;7.132;2023-04-30T05:38:48;101685.91;;;11.87;100.00
9419;BME280;4748;50.802;7.132;2023-04-30T05:41:13;101691.56;;;12.31;100.00
9419;BME280;4748;50.802;7.132;2023-04-30T05:43:38;101695.09;;;12.64;100.00
9419;BME280;4748;50.802;7.132;2023-04-30T05:46:04;101696.34;;;12.48;100.00
9419;BME280;4748;50.802;7.132;2023-04-30T05:48:30;101700.97;;;11.82;100.00
9419;BME280;4748;50.802;7.132;2023-04-30T05:50:55;101698.81;;;11.58;100.00
9419;BME280;4748;50.802;7.132;2023-04-30T05:53:20;101689.94;;;11.18;100.00
9419;BME280;4748;50.802;7.132;2023-04-30T05:55:46;101693.59;;;10.76;100.00
9419;BME280;4748;50.802;7.132;2023-04-30T05:58:11;101688.09;;;11.18;100.00
9419;BME280;4748;50.802;7.132;2023-04-30T06:00:36;101696.19;;;10.97;100.00
9419;BME280;4748;50.802;7.132;2023-04-30T06:03:03;101688.94;;;11.25;100.00
9419;BME280;4748;50.802;7.132;2023-04-30T06:05:28;101686.88;;;11.27;100.00
9419;BME280;4748;50.802;7.132;2023-04-30T06:07:53;101685.72;;;11.42;100.00
9419;BME280;4748;50.802;7.132;2023-04-30T06:10:19;101679.66;;;11.21;100.00
9419;BME280;4748;50.802;7.132;2023-04-30T06:12:45;101678.88;;;11.33;100.00
9419;BME280;4748;50.802;7.132;2023-04-30T06:15:10;101683.34;;;11.54;100.00
9419;BME280;4748;50.802;7.132;2023-04-30T06:17:36;101680.66;;;11.20;100.00
9419;BME280;4748;50.802;7.132;2023-04-30T06:20:01;101680.84;;;11.52;100.00
9419;BME280;4748;50.802;7.132;2023-04-30T06:22:31;101680.84;;;11.52;100.00
9419;BME280;4748;50.802;7.132;2023-04-30T06:24:56;101684.91;;;11.88;100.00
9419;BME280;4748;50.802;7.132;2023-04-30T06:27:22;101685.09;;;11.93;100.00
9419;BME280;4748;50.802;7.132;2023-04-30T06:29:47;101679.59;;;12.14;100.00
9419;BME280;4748;50.802;7.132;2023-04-30T06:32:13;101686.59;;;12.09;100.00
9419;BME280;4748;50.802;7.132;2023-04-30T06:34:38;101691.38;;;12.20;100.00
9419;BME280;4748;50.802;7.132;2023-04-30T06:37:03;101684.13;;;12.46;100.00
9419;BME280;4748;50.802;7.132;2023-04-30T06:39:29;101684.53;;;12.17;100.00
9419;BME280;4748;50.802;7.132;2023-04-30T06:41:54;101679.19;;;12.30;100.00
9419;BME280;4748;50.802;7.132;2023-04-30T06:44:20;101674.84;;;12.42;100.00
9419;BME280;4748;50.802;7.132;2023-04-30T06:46:45;101667.63;;;12.42;100.00
9419;BME280;4748;50.802;7.132;2023-04-30T06:49:10;101671.72;;;12.90;100.00
9419;BME280;4748;50.802;7.132;2023-04-30T06:51:36;101675.47;;;12.89;100.00
9419;BME280;4748;50.802;7.132;2023-04-30T06:54:01;101681.59;;;13.15;100.00
9419;BME280;4748;50.802;7.132;2023-04-30T06:56:26;101678.44;;;13.31;100.00
9419;BME280;4748;50.802;7.132;2023-04-30T06:58:52;101688.91;;;13.52;100.00
9419;BME280;4748;50.802;7.132;2023-04-30T07:01:17;101690.75;;;13.58;100.00
9419;BME280;4748;50.802;7.132;2023-04-30T07:03:42;101679.56;;;13.61;100.00
9419;BME280;4748;50.802;7.132;2023-04-30T07:06:08;101685.16;;;13.59;100.00
9419;BME280;4748;50.802;7.132;2023-04-30T07:08:33;101677.00;;;13.78;100.00
9419;BME280;4748;50.802;7.132;2023-04-30T07:10:59;101668.06;;;13.78;100.00
9419;BME280;4748;50.802;7.132;2023-04-30T07:13:24;101667.31;;;14.02;100.00
9419;BME280;4748;50.802;7.132;2023-04-30T07:15:49;101670.69;;;14.28;100.00
9419;BME280;4748;50.802;7.132;2023-04-30T07:18:15;101677.94;;;14.27;100.00
9419;BME280;4748;50.802;7.132;2023-04-30T07:20:41;101677.56;;;14.24;100.00
9419;BME280;4748;50.802;7.132;2023-04-30T07:23:06;101667.59;;;14.49;100.00
9419;BME280;4748;50.802;7.132;2023-04-30T07:25:33;101673.06;;;14.67;100.00
9419;BME280;4748;50.802;7.132;2023-04-30T07:27:58;101674.38;;;14.82;100.00
9419;BME280;4748;50.802;7.132;2023-04-30T07:30:24;101677.28;;;14.80;100.00
9419;BME280;4748;50.802;7.132;2023-04-30T07:32:49;101676.34;;;15.11;100.00
9419;BME280;4748;50.802;7.132;2023-04-30T07:35:15;101672.41;;;15.31;100.00
9419;BME280;4748;50.802;7.132;2023-04-30T07:37:40;101669.13;;;15.47;100.00
9419;BME280;4748;50.802;7.132;2023-04-30T07:40:08;101674.63;;;15.52;100.00
9419;BME280;4748;50.802;7.132;2023-04-30T07:42:40;101676.13;;;15.66;100.00
9419;BME280;4748;50.802;7.132;2023-04-30T07:45:11;101667.22;;;15.47;100.00
9419;BME280;4748;50.802;7.132;2023-04-30T07:47:37;101669.63;;;15.84;100.00
9419;BME280;4748;50.802;7.132;2023-04-30T07:50:03;101670.84;;;15.71;100.00
9419;BME280;4748;50.802;7.132;2023-04-30T07:52:28;101676.75;;;15.79;100.00
9419;BME280;4748;50.802;7.132;2023-04-30T07:54:54;101678.81;;;15.83;100.00
9419;BME280;4748;50.802;7.132;2023-04-30T07:57:19;101672.75;;;15.99;100.00
9419;BME280;4748;50.802;7.132;2023-04-30T07:59:45;101674.91;;;16.20;100.00
9419;BME280;4748;50.802;7.132;2023-04-30T08:02:10;101669.47;;;16.38;100.00
9419;BME280;4748;50.802;7.132;2023-04-30T08:04:35;101669.94;;;16.06;100.00
9419;BME280;4748;50.802;7.132;2023-04-30T08:07:01;101669.78;;;16.30;100.00
9419;BME280;4748;50.802;7.132;2023-04-30T08:09:26;101666.50;;;16.28;100.00
9419;BME280;4748;50.802;7.132;2023-04-30T08:11:52;101669.50;;;16.61;100.00
9419;BME280;4748;50.802;7.132;2023-04-30T08:14:18;101666.81;;;16.84;100.00
9419;BME280;4748;50.802;7.132;2023-04-30T08:16:44;101670.13;;;16.86;100.00
9419;BME280;4748;50.802;7.132;2023-04-30T08:19:09;101664.91;;;17.07;100.00
9419;BME280;4748;50.802;7.132;2023-04-30T08:21:35;101663.38;;;17.11;100.00
9419;BME280;4748;50.802;7.132;2023-04-30T08:24:00;101666.31;;;17.32;100.00
9419;BME280;4748;50.802;7.132;2023-04-30T08:26:26;101667.97;;;17.33;100.00
9419;BME280;4748;50.802;7.132;2023-04-30T08:28:51;101655.94;;;17.40;100.00
9419;BME280;4748;50.802;7.132;2023-04-30T08:31:16;101660.50;;;17.51;100.00
9419;BME280;4748;50.802;7.132;2023-04-30T08:33:42;101653.53;;;17.55;100.00
9419;BME280;4748;50.802;7.132;2023-04-30T08:36:07;101661.78;;;17.49;100.00
9419;BME280;4748;50.802;7.132;2023-04-30T08:38:32;101650.88;;;17.72;100.00
9419;BME280;4748;50.802;7.132;2023-04-30T08:41:12;101646.78;;;17.69;100.00
9419;BME280;4748;50.802;7.132;2023-04-30T08:43:39;101649.97;;;17.94;100.00
9419;BME280;4748;50.802;7.132;2023-04-30T08:46:05;101644.88;;;17.97;100.00
9419;BME280;4748;50.802;7.132;2023-04-30T08:48:30;101645.34;;;18.22;100.00
9419;BME280;4748;50.802;7.132;2023-04-30T08:51:00;101641.88;;;18.10;100.00
9419;BME280;4748;50.802;7.132;2023-04-30T08:53:26;101645.28;;;18.17;100.00
9419;BME280;4748;50.802;7.132;2023-04-30T08:55:52;101636.91;;;18.35;100.00
9419;BME280;4748;50.802;7.132;2023-04-30T08:58:17;101628.44;;;18.48;100.00
9419;BME280;4748;50.802;7.132;2023-04-30T09:00:42;101627.88;;;18.46;100.00
9419;BME280;4748;50.802;7.132;2023-04-30T09:03:08;101634.25;;;18.73;100.00
9419;BME280;4748;50.802;7.132;2023-04-30T09:05:35;101622.59;;;18.93;100.00
9419;BME280;4748;50.802;7.132;2023-04-30T09:08:01;101623.63;;;18.88;100.00
9419;BME280;4748;50.802;7.132;2023-04-30T09:10:26;101633.78;;;18.43;100.00
9419;BME280;4748;50.802;7.132;2023-04-30T09:13:17;101631.53;;;18.73;99.71
9419;BME280;4748;50.802;7.132;2023-04-30T09:15:43;101629.28;;;18.86;100.00
9419;BME280;4748;50.802;7.132;2023-04-30T09:18:15;101623.41;;;18.73;100.00
9419;BME280;4748;50.802;7.132;2023-04-30T09:20:59;101619.91;;;19.10;100.00
9419;BME280;4748;50.802;7.132;2023-04-30T09:23:28;101609.69;;;19.00;100.00
9419;BME280;4748;50.802;7.132;2023-04-30T09:25:53;101613.78;;;18.65;100.00
9419;BME280;4748;50.802;7.132;2023-04-30T09:28:19;101605.13;;;18.85;100.00
9419;BME280;4748;50.802;7.132;2023-04-30T09:30:51;101606.00;;;18.90;100.00
9419;BME280;4748;50.802;7.132;2023-04-30T09:33:16;101605.31;;;18.62;97.55
9419;BME280;4748;50.802;7.132;2023-04-30T09:35:42;101594.09;;;18.91;100.00
9419;BME280;4748;50.802;7.132;2023-04-30T09:38:24;101599.81;;;19.11;80.41
9419;BME280;4748;50.802;7.132;2023-04-30T09:40:50;101593.03;;;19.13;92.59
9419;BME280;4748;50.802;7.132;2023-04-30T09:43:16;101599.31;;;19.14;89.60
9419;BME280;4748;50.802;7.132;2023-04-30T09:45:42;101607.28;;;18.83;79.92
9419;BME280;4748;50.802;7.132;2023-04-30T09:48:21;101589.84;;;18.79;76.75
9419;BME280;4748;50.802;7.132;2023-04-30T09:50:48;101582.63;;;19.05;80.81
9419;BME280;4748;50.802;7.132;2023-04-30T09:53:14;101587.16;;;19.43;83.96
9419;BME280;4748;50.802;7.132;2023-04-30T09:55:43;101587.47;;;19.46;84.84
9419;BME280;4748;50.802;7.132;2023-04-30T09:58:10;101586.53;;;19.36;81.06
9419;BME280;4748;50.802;7.132;2023-04-30T10:00:37;101585.16;;;19.33;86.81
9419;BME280;4748;50.802;7.132;2023-04-30T10:03:08;101579.22;;;19.15;83.02
9419;BME280;4748;50.802;7.132;2023-04-30T10:08:09;101568.00;;;19.54;84.45
9419;BME280;4748;50.802;7.132;2023-04-30T10:10:39;101570.66;;;19.75;81.88
9419;BME280;4748;50.802;7.132;2023-04-30T10:13:10;101562.72;;;19.90;78.54
9419;BME280;4748;50.802;7.132;2023-04-30T10:15:42;101568.94;;;19.91;66.92
9419;BME280;4748;50.802;7.132;2023-04-30T10:18:16;101562.72;;;19.90;70.74
9419;BME280;4748;50.802;7.132;2023-04-30T10:20:44;101551.31;;;19.93;69.62
9419;BME280;4748;50.802;7.132;2023-04-30T10:23:11;101557.19;;;20.11;68.56
9419;BME280;4748;50.802;7.132;2023-04-30T10:25:37;101555.22;;;20.07;74.70
9419;BME280;4748;50.802;7.132;2023-04-30T10:28:03;101542.28;;;19.88;73.79
9419;BME280;4748;50.802;7.132;2023-04-30T10:30:29;101547.09;;;19.86;75.75
9419;BME280;4748;50.802;7.132;2023-04-30T10:35:56;101541.03;;;19.74;68.31
9419;BME280;4748;50.802;7.132;2023-04-30T10:38:25;101537.66;;;20.19;74.15
9419;BME280;4748;50.802;7.132;2023-04-30T10:40:55;101532.72;;;20.11;64.26
9419;BME280;4748;50.802;7.132;2023-04-30T10:43:26;101528.25;;;20.37;68.89
9419;BME280;4748;50.802;7.132;2023-04-30T10:45:55;101523.63;;;20.37;63.85
9419;BME280;4748;50.802;7.132;2023-04-30T10:48:22;101526.03;;;20.34;72.39
9419;BME280;4748;50.802;7.132;2023-04-30T10:50:53;101531.75;;;19.96;69.44
9419;BME280;4748;50.802;7.132;2023-04-30T10:53:19;101514.91;;;19.99;76.55
9419;BME280;4748;50.802;7.132;2023-04-30T10:55:52;101517.81;;;20.24;62.05
9419;BME280;4748;50.802;7.132;2023-04-30T10:58:46;101517.06;;;20.28;60.51
9419;BME280;4748;50.802;7.132;2023-04-30T11:01:13;101514.13;;;20.40;65.32
9419;BME280;4748;50.802;7.132;2023-04-30T11:03:40;101505.72;;;20.05;66.55
9419;BME280;4748;50.802;7.132;2023-04-30T11:06:15;101512.50;;;20.02;58.16
9419;BME280;4748;50.802;7.132;2023-04-30T11:08:45;101504.38;;;19.76;69.94
9419;BME280;4748;50.802;7.132;2023-04-30T11:11:16;101491.50;;;19.67;66.09
9419;BME280;4748;50.802;7.132;2023-04-30T11:13:46;101490.91;;;19.34;62.13
9419;BME280;4748;50.802;7.132;2023-04-30T11:16:15;101502.06;;;19.37;69.40
9419;BME280;4748;50.802;7.132;2023-04-30T11:18:44;101492.28;;;19.36;63.47
9419;BME280;4748;50.802;7.132;2023-04-30T11:21:10;101497.63;;;19.84;71.15
9419;BME280;4748;50.802;7.132;2023-04-30T11:23:39;101487.72;;;19.68;69.50
9419;BME280;4748;50.802;7.132;2023-04-30T11:26:06;101486.75;;;19.84;65.69
9419;BME280;4748;50.802;7.132;2023-04-30T11:28:32;101479.59;;;19.73;72.99
9419;BME280;4748;50.802;7.132;2023-04-30T11:31:00;101485.06;;;19.46;70.53
9419;BME280;4748;50.802;7.132;2023-04-30T11:33:27;101483.78;;;19.54;69.42
9419;BME280;4748;50.802;7.132;2023-04-30T11:35:54;101479.75;;;19.61;71.22
9419;BME280;4748;50.802;7.132;2023-04-30T11:38:40;101474.13;;;19.68;59.39
9419;BME280;4748;50.802;7.132;2023-04-30T11:41:06;101466.56;;;19.75;68.89
9419;BME280;4748;50.802;7.132;2023-04-30T11:43:33;101458.69;;;19.73;67.72
9419;BME280;4748;50.802;7.132;2023-04-30T11:46:12;101468.13;;;19.97;57.54
9419;BME280;4748;50.802;7.132;2023-04-30T11:48:45;101466.06;;;19.78;62.11
9419;BME280;4748;50.802;7.132;2023-04-30T11:51:20;101456.22;;;19.72;59.07
9419;BME280;4748;50.802;7.132;2023-04-30T11:53:50;101457.31;;;19.76;64.00
9419;BME280;4748;50.802;7.132;2023-04-30T11:56:22;101446.63;;;19.96;64.23
9419;BME280;4748;50.802;7.132;2023-04-30T11:58:51;101455.28;;;19.88;67.04
9419;BME280;4748;50.802;7.132;2023-04-30T12:01:18;101445.69;;;19.80;65.29
9419;BME280;4748;50.802;7.132;2023-04-30T12:03:46;101437.94;;;19.94;66.84
9419;BME280;4748;50.802;7.132;2023-04-30T12:06:21;101441.63;;;19.83;58.86
9419;BME280;4748;50.802;7.132;2023-04-30T12:08:47;101448.16;;;19.87;70.66
9419;BME280;4748;50.802;7.132;2023-04-30T12:11:22;101437.00;;;20.14;63.66
9419;BME280;4748;50.802;7.132;2023-04-30T12:13:53;101430.44;;;20.15;54.38
9419;BME280;4748;50.802;7.132;2023-04-30T12:16:19;101425.75;;;20.47;65.78
9419;BME280;4748;50.802;7.132;2023-04-30T12:18:48;101428.88;;;20.75;64.17
9419;BME280;4748;50.802;7.132;2023-04-30T12:21:14;101431.38;;;20.92;63.61
9419;BME280;4748;50.802;7.132;2023-04-30T12:23:39;101428.34;;;20.83;64.60
9419;BME280;4748;50.802;7.132;2023-04-30T12:26:05;101418.88;;;21.01;63.65
9419;BME280;4748;50.802;7.132;2023-04-30T12:28:33;101410.50;;;21.32;63.51
9419;BME280;4748;50.802;7.132;2023-04-30T12:30:59;101428.09;;;20.90;61.96
9419;BME280;4748;50.802;7.132;2023-04-30T12:33:29;101419.44;;;21.12;55.79
9419;BME280;4748;50.802;7.132;2023-04-30T12:35:55;101411.22;;;20.93;61.88
9419;BME280;4748;50.802;7.132;2023-04-30T12:38:22;101409.00;;;20.80;60.26
9419;BME280;4748;50.802;7.132;2023-04-30T12:40:47;101413.97;;;21.02;62.75
9419;BME280;4748;50.802;7.132;2023-04-30T12:43:15;101405.81;;;21.02;61.43
9419;BME280;4748;50.802;7.132;2023-04-30T12:48:10;101408.91;;;20.65;62.42
9419;BME280;4748;50.802;7.132;2023-04-30T12:50:35;101405.00;;;20.36;61.91
9419;BME280;4748;50.802;7.132;2023-04-30T12:53:02;101402.53;;;20.35;65.94
9419;BME280;4748;50.802;7.132;2023-04-30T12:55:29;101399.06;;;20.49;64.07
9419;BME280;4748;50.802;7.132;2023-04-30T12:58:12;101403.47;;;20.65;54.58
9419;BME280;4748;50.802;7.132;2023-04-30T13:00:45;101399.00;;;20.95;55.30
9419;BME280;4748;50.802;7.132;2023-04-30T13:03:12;101391.09;;;21.03;59.79
9419;BME280;4748;50.802;7.132;2023-04-30T13:05:39;101388.97;;;21.55;57.86
9419;BME280;4748;50.802;7.132;2023-04-30T13:08:05;101387.88;;;21.61;58.66
9419;BME280;4748;50.802;7.132;2023-04-30T13:10:31;101371.28;;;21.48;58.38
9419;BME280;4748;50.802;7.132;2023-04-30T13:12:57;101372.09;;;21.63;58.88
9419;BME280;4748;50.802;7.132;2023-04-30T13:15:23;101379.69;;;21.46;59.97
9419;BME280;4748;50.802;7.132;2023-04-30T13:17:48;101380.78;;;21.10;59.61
9419;BME280;4748;50.802;7.132;2023-04-30T13:20:17;101378.56;;;20.93;56.17
9419;BME280;4748;50.802;7.132;2023-04-30T13:22:43;101378.53;;;20.83;58.69